createdAt,value
2023-03-19T00:00:37.981Z,46.89
2023-03-19T00:02:39.324Z,47.19
2023-03-19T00:04:40.869Z,47.40
2023-03-19T00:06:42.160Z,47.57
2023-03-19T00:08:43.466Z,47.90
2023-03-19T00:10:44.803Z,47.67
2023-03-19T00:12:46.537Z,48.02
2023-03-19T00:14:47.888Z,48.04
2023-03-19T00:16:49.336Z,48.34
2023-03-19T00:18:50.679Z,48.88
2023-03-19T00:20:52.418Z,48.63
2023-03-19T00:22:53.751Z,48.63
2023-03-19T00:24:55.064Z,49.14
2023-03-19T00:26:56.661Z,49.21
2023-03-19T00:28:57.985Z,49.47
2023-03-19T00:30:59.331Z,49.43
2023-03-19T00:33:02.320Z,49.82
2023-03-19T00:35:04.036Z,49.86
2023-03-19T00:37:05.338Z,49.89
2023-03-19T00:39:06.679Z,50.31
2023-03-19T00:41:08.051Z,50.38
2023-03-19T00:43:09.450Z,50.50
2023-03-19T00:45:10.818Z,50.76
2023-03-19T00:47:12.419Z,50.96
2023-03-19T00:49:13.732Z,50.93
2023-03-19T00:51:15.104Z,50.90
2023-03-19T00:53:16.421Z,50.90
2023-03-19T00:55:17.756Z,51.28
2023-03-19T00:57:19.063Z,51.19
2023-03-19T00:59:20.614Z,51.10
2023-03-19T01:01:22.016Z,51.41
2023-03-19T01:03:23.356Z,51.20
2023-03-19T01:05:24.679Z,51.22
2023-03-19T01:07:26.238Z,51.45
2023-03-19T01:09:27.531Z,51.53
2023-03-19T01:11:28.834Z,51.75
2023-03-19T01:13:30.599Z,51.67
2023-03-19T01:15:32.016Z,51.39
2023-03-19T01:17:33.537Z,51.46
2023-03-19T01:19:34.846Z,51.24
2023-03-19T01:21:36.568Z,51.48
2023-03-19T01:23:37.895Z,51.04
2023-03-19T01:25:39.195Z,51.20
2023-03-19T01:27:40.506Z,50.76
2023-03-19T01:29:41.833Z,51.29
2023-03-19T01:31:43.123Z,51.03
2023-03-19T01:33:44.460Z,51.04
2023-03-19T01:35:45.828Z,51.52
2023-03-19T01:37:47.174Z,51.19
2023-03-19T01:39:48.541Z,51.32
2023-03-19T01:41:49.851Z,51.53
2023-03-19T01:43:51.194Z,51.05
2023-03-19T01:45:52.528Z,51.15
2023-03-19T01:47:53.848Z,51.36
2023-03-19T01:49:55.317Z,51.66
2023-03-19T01:51:56.639Z,51.99
2023-03-19T01:53:57.925Z,51.74
2023-03-19T01:55:59.259Z,52.01
2023-03-19T01:58:02.200Z,52.32
2023-03-19T02:00:04.280Z,52.74
2023-03-19T02:02:05.631Z,53.17
2023-03-19T02:04:07.138Z,53.17
2023-03-19T02:06:08.944Z,53.36
2023-03-19T02:08:10.372Z,52.83
2023-03-19T02:10:11.911Z,53.01
2023-03-19T02:12:13.204Z,53.23
2023-03-19T02:14:14.513Z,53.06
2023-03-19T02:16:16.066Z,53.45
2023-03-19T02:18:17.434Z,53.93
2023-03-19T02:20:18.817Z,53.36
2023-03-19T02:22:20.596Z,53.54
2023-03-19T02:24:21.901Z,53.31
2023-03-19T02:26:23.210Z,53.47
2023-03-19T02:28:24.502Z,53.54
2023-03-19T02:30:26.110Z,53.65
2023-03-19T02:32:27.437Z,53.11
2023-03-19T02:34:28.766Z,53.30
2023-03-19T02:36:30.767Z,53.17
2023-03-19T02:38:32.056Z,53.31
2023-03-19T02:40:33.515Z,53.02
2023-03-19T02:42:35.396Z,52.95
2023-03-19T02:44:37.440Z,52.85
2023-03-19T02:46:38.803Z,52.82
2023-03-19T02:48:41.315Z,53.18
2023-03-19T02:50:42.723Z,53.28
2023-03-19T02:52:44.055Z,53.07
2023-03-19T02:54:45.394Z,52.96
2023-03-19T02:56:46.908Z,52.82
2023-03-19T02:58:48.230Z,53.15
2023-03-19T03:00:49.557Z,52.77
2023-03-19T03:02:50.904Z,53.36
2023-03-19T03:04:52.244Z,53.70
2023-03-19T03:06:54.094Z,53.81
2023-03-19T03:08:55.430Z,53.52
2023-03-19T03:10:56.911Z,53.53
2023-03-19T03:12:58.205Z,53.33
2023-03-19T03:14:59.564Z,52.69
2023-03-19T03:17:00.874Z,52.82
2023-03-19T03:19:02.553Z,52.82
2023-03-19T03:21:03.855Z,53.12
2023-03-19T03:23:05.377Z,53.18
2023-03-19T03:25:06.675Z,52.98
2023-03-19T03:27:08.268Z,53.22
2023-03-19T03:29:09.584Z,53.18
2023-03-19T03:31:10.960Z,53.47
2023-03-19T03:33:12.365Z,53.33
2023-03-19T03:35:15.892Z,53.52
2023-03-19T03:37:17.582Z,53.76
2023-03-19T03:39:19.544Z,53.70
2023-03-19T03:41:20.876Z,54.08
2023-03-19T03:43:22.211Z,53.70
2023-03-19T03:45:23.509Z,53.87
2023-03-19T03:47:24.840Z,53.78
2023-03-19T03:49:26.263Z,53.92
2023-03-19T03:51:27.678Z,53.77
2023-03-19T03:53:29.004Z,53.72
2023-03-19T03:55:30.292Z,54.09
2023-03-19T03:57:31.598Z,53.87
2023-03-19T03:59:32.957Z,53.58
2023-03-19T04:01:34.348Z,53.71
2023-03-19T04:03:35.767Z,53.58
2023-03-19T04:05:37.898Z,54.33
2023-03-19T04:07:39.716Z,53.86
2023-03-19T04:09:41.342Z,54.01
2023-03-19T04:11:42.692Z,54.16
2023-03-19T04:13:43.983Z,54.00
2023-03-19T04:15:45.315Z,54.37
2023-03-19T04:17:47.303Z,54.41
2023-03-19T04:19:48.622Z,53.75
2023-03-19T04:21:49.948Z,53.95
2023-03-19T04:23:51.294Z,54.08
2023-03-19T04:25:52.604Z,53.56
2023-03-19T04:27:53.940Z,53.99
2023-03-19T04:29:55.549Z,54.24
2023-03-19T04:31:57.051Z,53.84
2023-03-19T04:33:58.458Z,53.97
2023-03-19T04:35:59.825Z,54.05
2023-03-19T04:38:01.141Z,54.37
2023-03-19T04:40:02.495Z,54.49
2023-03-19T04:42:04.570Z,54.27
2023-03-19T04:44:06.005Z,54.04
2023-03-19T04:46:08.191Z,54.12
2023-03-19T04:48:09.569Z,54.25
2023-03-19T04:50:10.912Z,54.13
2023-03-19T04:52:12.243Z,54.31
2023-03-19T04:54:13.814Z,53.98
2023-03-19T04:56:16.544Z,54.15
2023-03-19T04:58:18.073Z,54.69
2023-03-19T05:00:20.694Z,54.70
2023-03-19T05:02:22.065Z,54.50
2023-03-19T05:04:24.015Z,55.06
2023-03-19T05:06:27.261Z,54.70
2023-03-19T05:08:28.964Z,54.92
2023-03-19T05:10:30.356Z,54.92
2023-03-19T05:12:32.032Z,54.81
2023-03-19T05:14:33.360Z,54.66
2023-03-19T05:16:35.672Z,54.43
2023-03-19T05:18:37.901Z,54.42
2023-03-19T05:20:40.760Z,55.12
2023-03-19T05:22:42.309Z,54.44
2023-03-19T05:24:43.652Z,54.73
2023-03-19T05:26:44.980Z,54.86
2023-03-19T05:28:46.280Z,54.45
2023-03-19T05:30:47.636Z,54.41
2023-03-19T05:32:48.962Z,54.53
2023-03-19T05:34:50.277Z,54.74
2023-03-19T05:36:51.902Z,54.82
2023-03-19T05:38:53.420Z,54.83
2023-03-19T05:40:54.717Z,54.62
2023-03-19T05:42:56.015Z,54.57
2023-03-19T05:44:57.323Z,54.00
2023-03-19T05:46:58.612Z,54.47
2023-03-19T05:49:00.149Z,54.45
2023-03-19T05:51:01.970Z,54.17
2023-03-19T05:53:03.564Z,54.54
2023-03-19T05:55:04.882Z,54.71
2023-03-19T05:57:06.706Z,54.59
2023-03-19T05:59:08.292Z,54.42
2023-03-19T06:01:09.743Z,54.55
2023-03-19T06:03:11.194Z,54.46
2023-03-19T06:05:12.539Z,54.84
2023-03-19T06:07:13.843Z,54.81
2023-03-19T06:09:15.403Z,54.49
2023-03-19T06:11:16.844Z,54.95
2023-03-19T06:13:18.163Z,54.80
2023-03-19T06:15:19.508Z,54.41
2023-03-19T06:17:21.103Z,55.08
2023-03-19T06:19:23.049Z,55.06
2023-03-19T06:21:29.548Z,55.09
2023-03-19T06:23:30.924Z,55.00
2023-03-19T06:25:32.236Z,54.78
2023-03-19T06:27:33.568Z,54.98
2023-03-19T06:29:34.872Z,54.86
2023-03-19T06:31:39.359Z,55.06
2023-03-19T06:33:41.156Z,55.35
2023-03-19T06:35:42.522Z,54.89
2023-03-19T06:37:43.870Z,55.02
2023-03-19T06:39:45.206Z,54.83
2023-03-19T06:41:46.624Z,55.53
2023-03-19T06:43:48.010Z,55.25
2023-03-19T06:45:49.389Z,55.36
2023-03-19T06:47:53.456Z,55.73
2023-03-19T06:49:54.916Z,55.45
2023-03-19T06:51:56.210Z,55.32
2023-03-19T06:53:57.511Z,55.54
2023-03-19T06:55:58.808Z,56.14
2023-03-19T06:58:00.382Z,56.20
2023-03-19T07:00:01.771Z,56.31
2023-03-19T07:02:03.245Z,56.07
2023-03-19T07:04:04.597Z,55.74
2023-03-19T07:06:07.245Z,55.71
2023-03-19T07:08:11.991Z,55.85
2023-03-19T07:10:14.037Z,55.77
2023-03-19T07:12:15.328Z,55.89
2023-03-19T07:14:16.615Z,55.54
2023-03-19T07:16:17.958Z,55.82
2023-03-19T07:18:19.273Z,55.36
2023-03-19T07:20:20.855Z,55.38
2023-03-19T07:22:22.525Z,55.12
2023-03-19T07:24:23.824Z,55.50
2023-03-19T07:26:25.757Z,55.25
2023-03-19T07:28:27.115Z,55.28
2023-03-19T07:30:28.413Z,55.28
2023-03-19T07:32:29.720Z,55.63
2023-03-19T07:34:31.063Z,55.96
2023-03-19T07:36:32.401Z,55.74
2023-03-19T07:38:33.711Z,55.53
2023-03-19T07:40:35.398Z,55.67
2023-03-19T07:42:36.913Z,55.64
2023-03-19T07:44:38.320Z,56.16
2023-03-19T07:46:39.621Z,56.19
2023-03-19T07:48:41.032Z,56.54
2023-03-19T07:50:42.349Z,56.17
2023-03-19T07:52:43.685Z,55.28
2023-03-19T07:54:44.981Z,54.93
2023-03-19T07:56:46.797Z,54.46
2023-03-19T07:58:48.116Z,54.33
2023-03-19T08:00:49.410Z,54.88
2023-03-19T08:02:50.986Z,55.06
2023-03-19T08:04:52.379Z,54.90
2023-03-19T08:06:53.737Z,54.87
2023-03-19T08:08:55.053Z,54.89
2023-03-19T08:10:56.639Z,55.17
2023-03-19T08:12:58.112Z,54.98
2023-03-19T08:14:59.400Z,54.60
2023-03-19T08:17:00.836Z,54.94
2023-03-19T08:19:02.296Z,54.77
2023-03-19T08:21:03.942Z,54.65
2023-03-19T08:23:05.279Z,54.36
2023-03-19T08:25:06.893Z,53.99
2023-03-19T08:27:08.271Z,54.35
2023-03-19T08:29:12.501Z,54.07
2023-03-19T08:31:13.857Z,53.57
2023-03-19T08:33:15.252Z,53.38
2023-03-19T08:35:16.750Z,53.52
2023-03-19T08:37:18.040Z,52.92
2023-03-19T08:39:19.361Z,53.23
2023-03-19T08:41:20.757Z,52.88
2023-03-19T08:43:22.205Z,52.76
2023-03-19T08:45:23.693Z,52.31
2023-03-19T08:47:25.057Z,52.47
2023-03-19T08:49:26.346Z,52.40
2023-03-19T08:51:28.357Z,52.25
2023-03-19T08:53:29.679Z,52.46
2023-03-19T08:55:31.024Z,52.29
2023-03-19T08:57:32.337Z,41.86
2023-03-19T08:59:34.379Z,42.09
2023-03-19T09:01:36.496Z,41.01
2023-03-19T09:03:37.823Z,41.38
2023-03-19T09:05:39.193Z,38.87
2023-03-19T09:07:40.597Z,39.39
2023-03-19T09:09:41.898Z,40.65
2023-03-19T09:11:43.197Z,39.32
2023-03-19T09:13:44.502Z,41.20
2023-03-19T09:15:45.833Z,41.15
2023-03-19T09:17:47.130Z,41.89
2023-03-19T09:19:48.503Z,42.61
2023-03-19T09:21:50.358Z,43.54
2023-03-19T09:23:52.807Z,44.54
2023-03-19T09:25:54.179Z,45.39
2023-03-19T09:27:55.616Z,45.54
2023-03-19T09:29:56.921Z,45.00
2023-03-19T09:31:58.284Z,45.11
2023-03-19T09:33:59.631Z,46.37
2023-03-19T09:36:02.270Z,46.94
2023-03-19T09:38:03.659Z,47.10
2023-03-19T09:40:05.426Z,46.94
2023-03-19T09:42:06.943Z,47.46
2023-03-19T09:44:08.253Z,48.02
2023-03-19T09:46:09.613Z,47.68
2023-03-19T09:48:10.947Z,48.13
2023-03-19T09:50:12.442Z,48.58
2023-03-19T09:52:19.501Z,47.62
2023-03-19T09:54:21.208Z,48.13
2023-03-19T09:56:22.531Z,48.57
2023-03-19T09:58:23.832Z,47.66
2023-03-19T10:00:25.601Z,47.91
2023-03-19T10:02:26.904Z,47.50
2023-03-19T10:04:28.214Z,47.31
2023-03-19T10:06:29.669Z,47.43
2023-03-19T10:08:32.012Z,47.55
2023-03-19T10:10:33.455Z,48.29
2023-03-19T10:12:35.112Z,48.63
2023-03-19T10:14:36.815Z,48.77
2023-03-19T10:16:38.154Z,49.44
2023-03-19T10:18:39.545Z,49.56
2023-03-19T10:20:41.180Z,49.36
2023-03-19T10:22:42.515Z,50.00
2023-03-19T10:24:43.809Z,49.90
2023-03-19T10:26:45.801Z,49.52
2023-03-19T10:28:47.417Z,49.46
2023-03-19T10:30:48.764Z,49.87
2023-03-19T10:32:50.104Z,50.14
2023-03-19T10:34:53.905Z,49.70
2023-03-19T10:36:55.331Z,49.67
2023-03-19T10:38:56.843Z,49.63
2023-03-19T10:40:58.179Z,49.91
2023-03-19T10:42:59.469Z,50.28
2023-03-19T10:45:01.102Z,50.41
2023-03-19T10:47:02.429Z,49.96
2023-03-19T10:49:03.729Z,50.03
2023-03-19T10:51:07.696Z,50.34
2023-03-19T10:53:09.064Z,50.07
2023-03-19T10:55:10.373Z,50.19
2023-03-19T10:57:11.712Z,50.28
2023-03-19T10:59:13.019Z,50.25
2023-03-19T11:01:14.357Z,50.37
2023-03-19T11:03:15.937Z,49.81
2023-03-19T11:05:17.224Z,50.21
2023-03-19T11:07:18.601Z,50.28
2023-03-19T11:09:22.812Z,50.11
2023-03-19T11:11:24.661Z,50.02
2023-03-19T11:13:26.170Z,50.16
2023-03-19T11:15:30.264Z,49.81
2023-03-19T11:17:35.335Z,49.61
2023-03-19T11:19:36.929Z,49.46
2023-03-19T11:21:38.230Z,49.48
2023-03-19T11:23:39.530Z,49.08
2023-03-19T11:25:42.328Z,49.26
2023-03-19T11:27:43.658Z,49.45
2023-03-19T11:29:44.978Z,49.51
2023-03-19T11:31:46.291Z,49.64
2023-03-19T11:33:48.327Z,49.19
2023-03-19T11:35:49.685Z,49.76
2023-03-19T11:37:52.018Z,49.77
2023-03-19T11:39:54.121Z,49.65
2023-03-19T11:41:55.521Z,49.46
2023-03-19T11:43:57.583Z,49.41
2023-03-19T11:45:59.331Z,49.88
2023-03-19T11:48:00.727Z,49.33
2023-03-19T11:50:02.035Z,49.50
2023-03-19T11:52:03.344Z,49.28
2023-03-19T11:54:04.641Z,49.53
2023-03-19T11:56:07.989Z,49.71
2023-03-19T11:58:09.367Z,49.79
2023-03-19T12:00:13.459Z,49.69
2023-03-19T12:02:14.770Z,49.55
2023-03-19T12:04:18.760Z,49.33
2023-03-19T12:06:20.059Z,49.66
2023-03-19T12:08:24.623Z,49.96
2023-03-19T12:10:26.041Z,50.22
2023-03-19T12:12:27.377Z,50.38
2023-03-19T12:14:28.715Z,50.62
2023-03-19T12:16:31.400Z,51.42
2023-03-19T12:18:32.696Z,51.45
2023-03-19T12:20:34.004Z,51.89
2023-03-19T12:22:36.343Z,51.70
2023-03-19T12:24:38.004Z,51.91
2023-03-19T12:26:39.316Z,51.83
2023-03-19T12:28:40.666Z,51.99
2023-03-19T12:30:41.985Z,52.10
2023-03-19T12:32:43.578Z,52.18
2023-03-19T12:34:45.280Z,52.29
2023-03-19T12:36:47.109Z,52.60
2023-03-19T12:38:48.638Z,52.65
2023-03-19T12:40:49.951Z,52.52
2023-03-19T12:42:51.947Z,52.80
2023-03-19T12:44:53.245Z,52.73
2023-03-19T12:46:56.142Z,52.44
2023-03-19T12:48:59.259Z,52.52
2023-03-19T12:51:00.944Z,52.75
2023-03-19T12:53:02.254Z,52.92
2023-03-19T12:55:04.467Z,52.92
2023-03-19T12:57:05.787Z,52.89
2023-03-19T12:59:07.393Z,52.91
2023-03-19T13:01:09.115Z,53.01
2023-03-19T13:03:10.454Z,52.90
2023-03-19T13:05:12.796Z,52.95
2023-03-19T13:07:14.099Z,52.95
2023-03-19T13:09:15.434Z,53.01
2023-03-19T13:11:16.880Z,53.54
2023-03-19T13:13:18.211Z,53.24
2023-03-19T13:15:19.557Z,53.94
2023-03-19T13:17:21.604Z,53.35
2023-03-19T13:19:22.972Z,53.10
2023-03-19T13:21:24.686Z,53.26
2023-03-19T13:23:26.464Z,53.19
2023-03-19T13:25:27.785Z,53.18
2023-03-19T13:27:29.085Z,53.60
2023-03-19T13:29:30.494Z,53.61
2023-03-19T13:31:31.881Z,53.42
2023-03-19T13:33:33.235Z,53.17
2023-03-19T13:35:40.601Z,53.39
2023-03-19T13:37:42.070Z,53.19
2023-03-19T13:39:43.511Z,53.61
2023-03-19T13:41:44.819Z,53.72
2023-03-19T13:43:46.573Z,53.57
2023-03-19T13:45:47.885Z,54.12
2023-03-19T13:47:49.296Z,53.70
2023-03-19T13:49:50.596Z,53.83
2023-03-19T13:51:51.904Z,54.34
2023-03-19T13:53:56.198Z,54.66
2023-03-19T13:55:57.480Z,53.89
2023-03-19T13:58:12.284Z,53.96
2023-03-19T14:00:13.604Z,53.94
2023-03-19T14:02:14.920Z,53.73
2023-03-19T14:04:16.509Z,54.30
2023-03-19T14:06:17.814Z,54.06
2023-03-19T14:08:19.835Z,54.38
2023-03-19T14:10:21.126Z,53.80
2023-03-19T14:12:22.482Z,54.17
2023-03-19T14:14:23.830Z,54.16
2023-03-19T14:16:25.757Z,53.92
2023-03-19T14:18:27.083Z,54.11
2023-03-19T14:20:37.389Z,54.07
2023-03-19T14:22:42.090Z,55.91
2023-03-19T14:24:59.704Z,54.64
2023-03-19T14:27:01.056Z,54.32
2023-03-19T14:29:02.687Z,53.64
2023-03-19T14:31:04.400Z,52.44
2023-03-19T14:33:06.958Z,52.10
2023-03-19T14:35:08.301Z,53.34
2023-03-19T14:37:09.614Z,54.47
2023-03-19T14:39:10.981Z,54.24
2023-03-19T14:41:12.278Z,52.71
2023-03-19T14:43:13.572Z,52.86
2023-03-19T14:45:14.906Z,53.41
2023-03-19T14:47:16.982Z,53.91
2023-03-19T14:49:18.296Z,53.27
2023-03-19T14:51:20.387Z,52.95
2023-03-19T14:53:21.680Z,52.29
2023-03-19T14:55:23.154Z,52.37
2023-03-19T14:57:24.458Z,53.34
2023-03-19T14:59:25.783Z,51.74
2023-03-19T15:01:27.312Z,53.07
2023-03-19T15:03:28.702Z,53.26
2023-03-19T15:05:30.053Z,53.34
2023-03-19T15:07:31.531Z,53.71
2023-03-19T15:09:33.076Z,53.25
2023-03-19T15:11:34.418Z,53.28
2023-03-19T15:13:35.768Z,53.11
2023-03-19T15:15:44.383Z,53.48
2023-03-19T15:17:51.706Z,52.93
2023-03-19T15:19:58.923Z,52.79
2023-03-19T15:22:00.270Z,53.00
2023-03-19T15:24:04.598Z,52.92
2023-03-19T15:26:08.738Z,52.86
2023-03-19T15:28:13.858Z,52.80
2023-03-19T15:30:18.697Z,52.93
2023-03-19T15:32:20.330Z,52.58
2023-03-19T15:34:21.907Z,52.64
2023-03-19T15:36:24.056Z,52.70
2023-03-19T15:38:31.203Z,52.32
2023-03-19T15:40:32.707Z,52.31
2023-03-19T15:42:34.112Z,52.31
2023-03-19T15:44:36.478Z,52.39
2023-03-19T15:46:40.543Z,52.38
2023-03-19T15:48:42.302Z,52.12
2023-03-19T15:50:44.366Z,52.12
2023-03-19T15:52:51.591Z,52.03
2023-03-19T15:54:52.881Z,52.62
2023-03-19T15:56:54.225Z,51.94
2023-03-19T15:58:55.523Z,52.16
2023-03-19T16:00:56.839Z,52.09
2023-03-19T16:02:58.169Z,51.89
2023-03-19T16:05:22.479Z,52.03
2023-03-19T16:07:20.943Z,52.21
2023-03-19T16:09:22.314Z,52.04
2023-03-19T16:11:23.643Z,51.89
2023-03-19T16:13:25.699Z,51.88
2023-03-19T16:15:27.602Z,51.30
2023-03-19T16:17:28.896Z,50.54
2023-03-19T16:19:31.392Z,50.01
2023-03-19T16:21:33.898Z,50.83
2023-03-19T16:23:35.647Z,51.59
2023-03-19T16:25:37.198Z,51.25
2023-03-19T16:27:38.502Z,51.69
2023-03-19T16:29:39.822Z,50.65
2023-03-19T16:31:41.231Z,50.71
2023-03-19T16:33:42.528Z,50.98
2023-03-19T16:35:44.822Z,51.18
2023-03-19T16:39:50.172Z,51.30
2023-03-19T16:41:51.541Z,51.92
2023-03-19T16:43:52.891Z,51.37
2023-03-19T16:45:54.203Z,51.45
2023-03-19T16:47:55.619Z,51.48
2023-03-19T16:49:56.909Z,51.25
2023-03-19T16:53:59.570Z,51.88
2023-03-19T16:56:01.589Z,52.05
2023-03-19T16:58:05.695Z,52.04
2023-03-19T17:00:07.748Z,51.74
2023-03-19T17:02:09.092Z,51.89
2023-03-19T17:04:14.198Z,51.10
2023-03-19T17:06:15.934Z,51.31
2023-03-19T17:08:17.309Z,51.33
2023-03-19T17:10:18.640Z,50.89
2023-03-19T17:12:19.980Z,51.02
2023-03-19T17:14:21.831Z,51.04
2023-03-19T17:16:23.207Z,50.37
2023-03-19T17:18:24.698Z,50.78
2023-03-19T17:20:26.381Z,51.53
2023-03-19T17:22:27.718Z,51.29
2023-03-19T17:24:29.190Z,52.44
2023-03-19T17:26:30.624Z,50.79
2023-03-19T17:28:32.478Z,51.04
2023-03-19T17:30:34.130Z,51.17
2023-03-19T17:32:38.444Z,50.05
2023-03-19T17:34:40.147Z,50.84
2023-03-19T17:36:41.752Z,51.37
2023-03-19T17:38:43.074Z,51.65
2023-03-19T17:40:44.393Z,51.29
2023-03-19T17:42:45.953Z,52.38
2023-03-19T17:44:47.294Z,52.21
2023-03-19T17:46:49.828Z,52.45
2023-03-19T17:48:51.432Z,51.88
2023-03-19T17:50:52.779Z,52.26
2023-03-19T17:53:00.125Z,51.94
2023-03-19T17:57:02.888Z,52.15
2023-03-19T17:59:04.320Z,52.00
2023-03-19T18:01:05.855Z,51.64
2023-03-19T18:03:07.227Z,51.65
2023-03-19T18:05:08.732Z,51.53
2023-03-19T18:07:10.222Z,52.45
2023-03-19T18:09:11.525Z,52.67
2023-03-19T18:11:12.886Z,52.89
2023-03-19T18:13:14.290Z,52.84
2023-03-19T18:15:15.722Z,52.55
2023-03-19T18:17:17.057Z,52.22
2023-03-19T18:19:21.268Z,52.10
2023-03-19T18:21:22.719Z,52.32
2023-03-19T18:23:24.859Z,51.87
2023-03-19T18:25:26.206Z,52.16
2023-03-19T18:27:27.592Z,52.08
2023-03-19T18:29:28.900Z,52.16
2023-03-19T18:31:30.490Z,51.85
2023-03-19T18:33:31.824Z,51.81
2023-03-19T18:35:33.854Z,51.57
2023-03-19T18:37:36.160Z,51.98
2023-03-19T18:39:38.551Z,51.91
2023-03-19T18:41:40.019Z,51.56
2023-03-19T18:43:41.312Z,51.52
2023-03-19T18:45:42.639Z,51.18
2023-03-19T18:47:46.666Z,50.58
2023-03-19T18:49:50.900Z,50.64
2023-03-19T18:52:03.485Z,50.76
2023-03-19T18:54:05.116Z,51.23
2023-03-19T18:56:07.873Z,50.53
2023-03-19T18:58:09.170Z,50.74
2023-03-19T19:00:10.665Z,51.01
2023-03-19T19:02:11.960Z,50.94
2023-03-19T19:04:13.373Z,50.75
2023-03-19T19:06:14.662Z,51.45
2023-03-19T19:08:16.192Z,50.56
2023-03-19T19:10:17.596Z,50.81
2023-03-19T19:12:19.048Z,51.11
2023-03-19T19:14:24.194Z,51.44
2023-03-19T19:16:25.565Z,51.44
2023-03-19T19:18:26.967Z,51.80
2023-03-19T19:20:31.052Z,51.86
2023-03-19T19:22:32.354Z,51.15
2023-03-19T19:24:33.689Z,51.24
2023-03-19T19:26:36.400Z,50.93
2023-03-19T19:28:40.800Z,51.37
2023-03-19T19:30:47.040Z,51.16
2023-03-19T19:32:48.511Z,51.27
2023-03-19T19:34:49.851Z,50.97
2023-03-19T19:36:52.418Z,51.65
2023-03-19T19:38:53.761Z,51.44
2023-03-19T19:40:55.210Z,51.33
2023-03-19T19:42:56.544Z,51.34
2023-03-19T19:45:01.510Z,51.74
2023-03-19T19:47:09.238Z,51.49
2023-03-19T19:49:12.077Z,51.05
2023-03-19T19:51:13.538Z,50.96
2023-03-19T19:53:15.205Z,51.03
2023-03-19T19:55:16.559Z,51.47
2023-03-19T19:57:27.096Z,51.83
2023-03-19T19:59:28.404Z,51.74
2023-03-19T20:01:32.888Z,52.57
2023-03-19T20:03:37.900Z,51.85
2023-03-19T20:05:39.266Z,53.17
2023-03-19T20:07:40.807Z,53.02
2023-03-19T20:09:42.127Z,52.87
2023-03-19T20:11:43.710Z,51.33
2023-03-19T20:13:49.143Z,51.19
2023-03-19T20:15:53.647Z,51.95
2023-03-19T20:17:55.076Z,51.46
2023-03-19T20:19:56.400Z,51.47
2023-03-19T20:21:57.731Z,51.25
2023-03-19T20:23:59.080Z,51.99
2023-03-19T20:26:01.769Z,51.49
2023-03-19T20:28:03.527Z,51.54
2023-03-19T20:30:05.135Z,51.21
2023-03-19T20:32:06.630Z,51.55
2023-03-19T20:34:07.929Z,51.95
2023-03-19T20:36:13.444Z,51.72
2023-03-19T20:38:14.812Z,51.58
2023-03-19T20:40:16.304Z,51.55
2023-03-19T20:42:17.589Z,51.36
2023-03-19T20:44:18.924Z,51.46
2023-03-19T20:46:20.461Z,51.72
2023-03-19T20:48:22.199Z,51.52
2023-03-19T20:50:23.799Z,52.21
2023-03-19T20:52:25.902Z,52.01
2023-03-19T20:54:27.791Z,52.24
2023-03-19T20:56:30.812Z,52.10
2023-03-19T20:58:33.568Z,53.16
2023-03-19T21:00:34.892Z,53.20
2023-03-19T21:02:36.228Z,53.12
2023-03-19T21:04:37.528Z,53.03
2023-03-19T21:06:52.393Z,52.88
2023-03-19T21:08:57.131Z,53.22
2023-03-19T21:10:58.491Z,53.77
2023-03-19T21:12:59.844Z,52.97
2023-03-19T21:15:02.210Z,52.73
2023-03-19T21:17:03.541Z,46.99
2023-03-19T21:19:05.602Z,46.93
2023-03-19T21:21:07.778Z,49.74
2023-03-19T21:23:09.140Z,48.70
2023-03-19T21:25:10.902Z,48.63
2023-03-19T21:27:12.196Z,49.11
2023-03-19T21:29:14.119Z,49.69
2023-03-19T21:31:18.017Z,50.06
2023-03-19T21:33:19.709Z,49.97
2023-03-19T21:35:21.116Z,50.25
2023-03-19T21:37:22.448Z,50.46
2023-03-19T21:39:23.820Z,50.77
2023-03-19T21:41:26.063Z,50.60
2023-03-19T21:43:27.847Z,51.06
2023-03-19T21:45:29.183Z,51.07
2023-03-19T21:47:30.479Z,51.54
2023-03-19T21:49:31.792Z,51.18
2023-03-19T21:51:33.088Z,51.39
2023-03-19T21:53:34.380Z,52.03
2023-03-19T21:55:35.835Z,51.44
2023-03-19T21:57:37.298Z,51.95
2023-03-19T21:59:38.681Z,51.91
2023-03-19T22:01:40.608Z,51.82
2023-03-19T22:03:41.981Z,52.34
2023-03-19T22:05:43.341Z,52.70
2023-03-19T22:07:44.675Z,52.64
2023-03-19T22:09:45.991Z,52.63
2023-03-19T22:11:47.349Z,52.55
2023-03-19T22:13:48.764Z,52.41
2023-03-19T22:15:50.537Z,52.63
2023-03-19T22:17:51.866Z,52.95
2023-03-19T22:19:53.300Z,53.09
2023-03-19T22:21:55.219Z,53.44
2023-03-19T22:23:56.702Z,53.21
2023-03-19T22:25:58.022Z,53.44
2023-03-19T22:27:59.579Z,53.51
2023-03-19T22:30:00.982Z,53.49
2023-03-19T22:32:02.347Z,53.62
2023-03-19T22:34:03.812Z,53.70
2023-03-19T22:36:05.255Z,54.30
2023-03-19T22:38:06.591Z,53.90
2023-03-19T22:40:07.897Z,54.24
2023-03-19T22:42:09.188Z,54.33
2023-03-19T22:44:10.508Z,54.64
2023-03-19T22:46:12.136Z,54.63
2023-03-19T22:48:13.595Z,54.76
2023-03-19T22:50:14.920Z,54.90
2023-03-19T22:52:16.256Z,54.93
2023-03-19T22:54:17.556Z,55.22
2023-03-19T22:56:18.852Z,55.45
2023-03-19T22:58:20.464Z,55.29
2023-03-19T23:00:23.488Z,55.29
2023-03-19T23:02:25.002Z,55.01
2023-03-19T23:04:26.541Z,55.35
2023-03-19T23:06:30.941Z,55.01
2023-03-19T23:08:32.515Z,55.27
2023-03-19T23:10:33.860Z,54.88
2023-03-19T23:12:35.168Z,54.80
2023-03-19T23:14:36.943Z,54.78
2023-03-19T23:16:38.590Z,54.93
2023-03-19T23:18:40.297Z,55.08
2023-03-19T23:20:41.911Z,54.94
2023-03-19T23:22:43.807Z,54.66
2023-03-19T23:24:45.124Z,54.72
2023-03-19T23:26:46.426Z,54.47
2023-03-19T23:28:48.682Z,54.03
2023-03-19T23:30:50.296Z,54.23
2023-03-19T23:32:52.674Z,54.57
2023-03-19T23:35:00.577Z,54.28
2023-03-19T23:37:02.881Z,54.51
2023-03-19T23:39:04.225Z,54.80
2023-03-19T23:41:06.079Z,54.50
2023-03-19T23:43:07.735Z,54.53
2023-03-19T23:45:09.032Z,54.71
2023-03-19T23:47:10.868Z,54.70
2023-03-19T23:49:12.269Z,55.05
2023-03-19T23:51:14.064Z,54.75
2023-03-19T23:53:15.364Z,54.97
2023-03-19T23:55:16.979Z,55.42
2023-03-19T23:57:18.301Z,55.30
2023-03-19T23:59:19.638Z,55.50
